sensor_id;sensor_type;location;lat;lon;timestamp;P1;durP1;ratioP1;P2;durP2;ratioP2
20559;SDS011;10438;51.454;6.718;2023-04-21T00:00:45;50.00;;;30.13;;
20559;SDS011;10438;51.454;6.718;2023-04-21T00:03:11;51.80;;;30.10;;
20559;SDS011;10438;51.454;6.718;2023-04-21T00:05:36;47.90;;;29.63;;
20559;SDS011;10438;51.454;6.718;2023-04-21T00:08:06;50.73;;;29.80;;
20559;SDS011;10438;51.454;6.718;2023-04-21T00:10:32;52.03;;;31.50;;
20559;SDS011;10438;51.454;6.718;2023-04-21T00:12:57;47.83;;;29.47;;
20559;SDS011;10438;51.454;6.718;2023-04-21T00:15:23;45.43;;;28.07;;
20559;SDS011;10438;51.454;6.718;2023-04-21T00:17:48;53.67;;;30.70;;
20559;SDS011;10438;51.454;6.718;2023-04-21T00:20:14;54.40;;;29.40;;
20559;SDS011;10438;51.454;6.718;2023-04-21T00:22:39;51.77;;;28.57;;
20559;SDS011;10438;51.454;6.718;2023-04-21T00:25:05;51.07;;;29.70;;
20559;SDS011;10438;51.454;6.718;2023-04-21T00:27:31;52.50;;;29.70;;
20559;SDS011;10438;51.454;6.718;2023-04-21T00:29:57;57.13;;;31.30;;
20559;SDS011;10438;51.454;6.718;2023-04-21T00:32:22;55.37;;;31.00;;
20559;SDS011;10438;51.454;6.718;2023-04-21T00:34:48;56.03;;;32.73;;
20559;SDS011;10438;51.454;6.718;2023-04-21T00:37:13;56.53;;;32.87;;
20559;SDS011;10438;51.454;6.718;2023-04-21T00:39:39;55.60;;;30.53;;
20559;SDS011;10438;51.454;6.718;2023-04-21T00:42:04;55.67;;;32.70;;
20559;SDS011;10438;51.454;6.718;2023-04-21T00:44:30;59.37;;;34.57;;
20559;SDS011;10438;51.454;6.718;2023-04-21T00:46:55;60.20;;;33.10;;
20559;SDS011;10438;51.454;6.718;2023-04-21T00:49:21;64.33;;;33.90;;
20559;SDS011;10438;51.454;6.718;2023-04-21T00:51:49;59.77;;;32.13;;
20559;SDS011;10438;51.454;6.718;2023-04-21T00:54:16;64.57;;;34.07;;
20559;SDS011;10438;51.454;6.718;2023-04-21T00:56:42;71.47;;;35.40;;
20559;SDS011;10438;51.454;6.718;2023-04-21T00:59:08;68.70;;;34.63;;
20559;SDS011;10438;51.454;6.718;2023-04-21T01:01:33;66.00;;;34.53;;
20559;SDS011;10438;51.454;6.718;2023-04-21T01:04:00;65.97;;;35.93;;
20559;SDS011;10438;51.454;6.718;2023-04-21T01:06:28;69.63;;;35.37;;
20559;SDS011;10438;51.454;6.718;2023-04-21T01:08:56;64.63;;;34.33;;
20559;SDS011;10438;51.454;6.718;2023-04-21T01:11:22;72.17;;;36.37;;
20559;SDS011;10438;51.454;6.718;2023-04-21T01:13:47;71.60;;;36.63;;
20559;SDS011;10438;51.454;6.718;2023-04-21T01:16:19;71.50;;;36.73;;
20559;SDS011;10438;51.454;6.718;2023-04-21T01:18:47;71.93;;;37.07;;
20559;SDS011;10438;51.454;6.718;2023-04-21T01:21:12;80.53;;;40.13;;
20559;SDS011;10438;51.454;6.718;2023-04-21T01:23:39;76.57;;;39.80;;
20559;SDS011;10438;51.454;6.718;2023-04-21T01:26:05;72.00;;;37.93;;
20559;SDS011;10438;51.454;6.718;2023-04-21T01:28:30;72.60;;;38.53;;
20559;SDS011;10438;51.454;6.718;2023-04-21T01:30:56;71.07;;;35.90;;
20559;SDS011;10438;51.454;6.718;2023-04-21T01:33:21;76.23;;;37.23;;
20559;SDS011;10438;51.454;6.718;2023-04-21T01:35:47;73.27;;;36.93;;
20559;SDS011;10438;51.454;6.718;2023-04-21T01:38:13;78.50;;;37.53;;
20559;SDS011;10438;51.454;6.718;2023-04-21T01:40:42;78.10;;;38.23;;
20559;SDS011;10438;51.454;6.718;2023-04-21T01:43:16;80.87;;;38.63;;
20559;SDS011;10438;51.454;6.718;2023-04-21T01:45:44;73.23;;;37.97;;
20559;SDS011;10438;51.454;6.718;2023-04-21T01:48:10;83.00;;;40.70;;
20559;SDS011;10438;51.454;6.718;2023-04-21T01:50:36;82.10;;;39.10;;
20559;SDS011;10438;51.454;6.718;2023-04-21T01:53:01;89.17;;;46.50;;
20559;SDS011;10438;51.454;6.718;2023-04-21T01:55:27;100.10;;;49.73;;
20559;SDS011;10438;51.454;6.718;2023-04-21T01:57:53;114.30;;;54.50;;
20559;SDS011;10438;51.454;6.718;2023-04-21T02:00:21;118.77;;;57.37;;
20559;SDS011;10438;51.454;6.718;2023-04-21T02:02:47;107.03;;;53.53;;
20559;SDS011;10438;51.454;6.718;2023-04-21T02:05:12;106.50;;;52.20;;
20559;SDS011;10438;51.454;6.718;2023-04-21T02:07:38;96.57;;;49.00;;
20559;SDS011;10438;51.454;6.718;2023-04-21T02:10:04;89.47;;;45.83;;
20559;SDS011;10438;51.454;6.718;2023-04-21T02:12:29;81.43;;;41.30;;
20559;SDS011;10438;51.454;6.718;2023-04-21T02:14:55;87.40;;;41.87;;
20559;SDS011;10438;51.454;6.718;2023-04-21T02:17:20;81.07;;;39.83;;
20559;SDS011;10438;51.454;6.718;2023-04-21T02:19:46;86.27;;;39.80;;
20559;SDS011;10438;51.454;6.718;2023-04-21T02:22:12;83.07;;;40.23;;
20559;SDS011;10438;51.454;6.718;2023-04-21T02:24:37;87.23;;;39.83;;
20559;SDS011;10438;51.454;6.718;2023-04-21T02:27:03;81.80;;;39.63;;
20559;SDS011;10438;51.454;6.718;2023-04-21T02:29:29;78.60;;;39.37;;
20559;SDS011;10438;51.454;6.718;2023-04-21T02:31:55;79.33;;;39.13;;
20559;SDS011;10438;51.454;6.718;2023-04-21T02:34:20;86.17;;;39.77;;
20559;SDS011;10438;51.454;6.718;2023-04-21T02:36:46;82.17;;;40.97;;
20559;SDS011;10438;51.454;6.718;2023-04-21T02:39:12;85.03;;;40.60;;
20559;SDS011;10438;51.454;6.718;2023-04-21T02:41:38;79.00;;;38.13;;
20559;SDS011;10438;51.454;6.718;2023-04-21T02:44:03;81.93;;;38.60;;
20559;SDS011;10438;51.454;6.718;2023-04-21T02:46:29;88.80;;;40.43;;
20559;SDS011;10438;51.454;6.718;2023-04-21T02:48:55;80.33;;;40.10;;
20559;SDS011;10438;51.454;6.718;2023-04-21T02:51:21;79.73;;;39.10;;
20559;SDS011;10438;51.454;6.718;2023-04-21T02:53:46;82.63;;;39.90;;
20559;SDS011;10438;51.454;6.718;2023-04-21T02:56:12;85.23;;;41.17;;
20559;SDS011;10438;51.454;6.718;2023-04-21T02:58:38;87.43;;;40.00;;
20559;SDS011;10438;51.454;6.718;2023-04-21T03:01:04;77.37;;;40.13;;
20559;SDS011;10438;51.454;6.718;2023-04-21T03:03:30;78.60;;;39.10;;
20559;SDS011;10438;51.454;6.718;2023-04-21T03:05:56;81.97;;;39.67;;
20559;SDS011;10438;51.454;6.718;2023-04-21T03:08:26;85.77;;;41.87;;
20559;SDS011;10438;51.454;6.718;2023-04-21T03:10:52;85.33;;;44.07;;
20559;SDS011;10438;51.454;6.718;2023-04-21T03:13:17;88.93;;;42.80;;
20559;SDS011;10438;51.454;6.718;2023-04-21T03:15:43;84.43;;;40.83;;
20559;SDS011;10438;51.454;6.718;2023-04-21T03:18:09;83.73;;;39.23;;
20559;SDS011;10438;51.454;6.718;2023-04-21T03:20:35;86.87;;;41.87;;
20559;SDS011;10438;51.454;6.718;2023-04-21T03:23:00;95.33;;;42.27;;
20559;SDS011;10438;51.454;6.718;2023-04-21T03:25:26;89.97;;;42.37;;
20559;SDS011;10438;51.454;6.718;2023-04-21T03:27:55;86.47;;;39.77;;
20559;SDS011;10438;51.454;6.718;2023-04-21T03:30:21;81.73;;;40.63;;
20559;SDS011;10438;51.454;6.718;2023-04-21T03:32:47;81.93;;;39.70;;
20559;SDS011;10438;51.454;6.718;2023-04-21T03:35:14;78.73;;;39.27;;
20559;SDS011;10438;51.454;6.718;2023-04-21T03:37:40;87.90;;;40.47;;
20559;SDS011;10438;51.454;6.718;2023-04-21T03:40:05;89.83;;;40.23;;
20559;SDS011;10438;51.454;6.718;2023-04-21T03:42:32;80.10;;;40.07;;
20559;SDS011;10438;51.454;6.718;2023-04-21T03:45:05;86.23;;;42.20;;
20559;SDS011;10438;51.454;6.718;2023-04-21T03:47:32;94.20;;;43.23;;
20559;SDS011;10438;51.454;6.718;2023-04-21T03:49:57;78.40;;;40.00;;
20559;SDS011;10438;51.454;6.718;2023-04-21T03:52:23;88.43;;;42.57;;
20559;SDS011;10438;51.454;6.718;2023-04-21T03:54:49;83.20;;;40.77;;
20559;SDS011;10438;51.454;6.718;2023-04-21T03:57:14;86.90;;;41.67;;
20559;SDS011;10438;51.454;6.718;2023-04-21T03:59:40;85.83;;;40.73;;
20559;SDS011;10438;51.454;6.718;2023-04-21T04:02:06;84.73;;;41.77;;
20559;SDS011;10438;51.454;6.718;2023-04-21T04:04:32;80.00;;;40.60;;
20559;SDS011;10438;51.454;6.718;2023-04-21T04:06:58;84.37;;;41.73;;
20559;SDS011;10438;51.454;6.718;2023-04-21T04:09:23;88.33;;;42.03;;
20559;SDS011;10438;51.454;6.718;2023-04-21T04:11:49;96.47;;;44.13;;
20559;SDS011;10438;51.454;6.718;2023-04-21T04:14:15;87.67;;;41.37;;
20559;SDS011;10438;51.454;6.718;2023-04-21T04:16:40;87.63;;;41.80;;
20559;SDS011;10438;51.454;6.718;2023-04-21T04:19:06;86.47;;;43.30;;
20559;SDS011;10438;51.454;6.718;2023-04-21T04:21:32;87.10;;;41.50;;
20559;SDS011;10438;51.454;6.718;2023-04-21T04:23:58;82.30;;;42.73;;
20559;SDS011;10438;51.454;6.718;2023-04-21T04:26:24;95.07;;;43.83;;
20559;SDS011;10438;51.454;6.718;2023-04-21T04:28:53;89.13;;;43.30;;
20559;SDS011;10438;51.454;6.718;2023-04-21T04:31:24;86.50;;;41.10;;
20559;SDS011;10438;51.454;6.718;2023-04-21T04:33:50;90.27;;;43.60;;
20559;SDS011;10438;51.454;6.718;2023-04-21T04:36:16;88.50;;;43.10;;
20559;SDS011;10438;51.454;6.718;2023-04-21T04:38:41;90.50;;;43.60;;
20559;SDS011;10438;51.454;6.718;2023-04-21T04:41:07;89.47;;;42.23;;
20559;SDS011;10438;51.454;6.718;2023-04-21T04:43:33;92.50;;;43.30;;
20559;SDS011;10438;51.454;6.718;2023-04-21T04:46:01;89.83;;;43.07;;
20559;SDS011;10438;51.454;6.718;2023-04-21T04:48:27;86.50;;;43.30;;
20559;SDS011;10438;51.454;6.718;2023-04-21T04:50:52;88.73;;;43.20;;
20559;SDS011;10438;51.454;6.718;2023-04-21T04:53:18;93.50;;;44.67;;
20559;SDS011;10438;51.454;6.718;2023-04-21T04:55:43;105.73;;;45.23;;
20559;SDS011;10438;51.454;6.718;2023-04-21T04:58:10;89.87;;;42.87;;
20559;SDS011;10438;51.454;6.718;2023-04-21T05:00:35;92.77;;;43.73;;
20559;SDS011;10438;51.454;6.718;2023-04-21T05:03:01;96.63;;;44.10;;
20559;SDS011;10438;51.454;6.718;2023-04-21T05:05:27;92.30;;;44.17;;
20559;SDS011;10438;51.454;6.718;2023-04-21T05:07:52;95.67;;;44.80;;
20559;SDS011;10438;51.454;6.718;2023-04-21T05:10:18;91.07;;;44.33;;
20559;SDS011;10438;51.454;6.718;2023-04-21T05:12:43;95.20;;;43.87;;
20559;SDS011;10438;51.454;6.718;2023-04-21T05:15:09;93.93;;;43.07;;
20559;SDS011;10438;51.454;6.718;2023-04-21T05:17:35;85.40;;;43.07;;
20559;SDS011;10438;51.454;6.718;2023-04-21T05:20:00;83.57;;;42.23;;
20559;SDS011;10438;51.454;6.718;2023-04-21T05:22:28;91.13;;;43.00;;
20559;SDS011;10438;51.454;6.718;2023-04-21T05:24:53;91.37;;;42.17;;
20559;SDS011;10438;51.454;6.718;2023-04-21T05:27:19;86.87;;;41.17;;
20559;SDS011;10438;51.454;6.718;2023-04-21T05:29:44;85.73;;;42.50;;
20559;SDS011;10438;51.454;6.718;2023-04-21T05:32:10;86.90;;;41.93;;
20559;SDS011;10438;51.454;6.718;2023-04-21T05:34:36;87.80;;;42.73;;
20559;SDS011;10438;51.454;6.718;2023-04-21T05:37:02;80.27;;;40.53;;
20559;SDS011;10438;51.454;6.718;2023-04-21T05:39:28;80.27;;;41.10;;
20559;SDS011;10438;51.454;6.718;2023-04-21T05:41:54;92.40;;;42.77;;
20559;SDS011;10438;51.454;6.718;2023-04-21T05:44:19;82.90;;;42.17;;
20559;SDS011;10438;51.454;6.718;2023-04-21T05:46:45;82.97;;;41.20;;
20559;SDS011;10438;51.454;6.718;2023-04-21T05:49:10;81.40;;;41.77;;
20559;SDS011;10438;51.454;6.718;2023-04-21T05:51:36;79.97;;;41.20;;
20559;SDS011;10438;51.454;6.718;2023-04-21T05:54:02;74.00;;;40.63;;
20559;SDS011;10438;51.454;6.718;2023-04-21T05:56:27;78.13;;;40.60;;
20559;SDS011;10438;51.454;6.718;2023-04-21T05:58:53;84.23;;;40.87;;
20559;SDS011;10438;51.454;6.718;2023-04-21T06:01:18;75.23;;;40.03;;
20559;SDS011;10438;51.454;6.718;2023-04-21T06:03:44;74.23;;;39.70;;
20559;SDS011;10438;51.454;6.718;2023-04-21T06:06:09;76.93;;;39.73;;
20559;SDS011;10438;51.454;6.718;2023-04-21T06:08:35;75.00;;;38.97;;
20559;SDS011;10438;51.454;6.718;2023-04-21T06:11:01;70.53;;;39.27;;
20559;SDS011;10438;51.454;6.718;2023-04-21T06:13:26;71.63;;;39.37;;
20559;SDS011;10438;51.454;6.718;2023-04-21T06:15:53;66.67;;;37.80;;
20559;SDS011;10438;51.454;6.718;2023-04-21T06:18:18;70.40;;;40.00;;
20559;SDS011;10438;51.454;6.718;2023-04-21T06:20:51;69.70;;;37.47;;
20559;SDS011;10438;51.454;6.718;2023-04-21T06:23:17;59.53;;;34.90;;
20559;SDS011;10438;51.454;6.718;2023-04-21T06:25:42;65.83;;;37.03;;
20559;SDS011;10438;51.454;6.718;2023-04-21T06:28:08;65.10;;;36.03;;
20559;SDS011;10438;51.454;6.718;2023-04-21T06:30:33;67.23;;;36.03;;
20559;SDS011;10438;51.454;6.718;2023-04-21T06:32:59;66.00;;;36.30;;
20559;SDS011;10438;51.454;6.718;2023-04-21T06:35:25;72.60;;;38.70;;
20559;SDS011;10438;51.454;6.718;2023-04-21T06:37:50;67.57;;;36.70;;
20559;SDS011;10438;51.454;6.718;2023-04-21T06:40:16;65.00;;;36.27;;
20559;SDS011;10438;51.454;6.718;2023-04-21T06:42:41;61.30;;;35.17;;
20559;SDS011;10438;51.454;6.718;2023-04-21T06:45:07;60.07;;;36.43;;
20559;SDS011;10438;51.454;6.718;2023-04-21T06:47:33;65.33;;;36.97;;
20559;SDS011;10438;51.454;6.718;2023-04-21T06:49:59;66.80;;;36.80;;
20559;SDS011;10438;51.454;6.718;2023-04-21T06:52:24;65.13;;;38.10;;
20559;SDS011;10438;51.454;6.718;2023-04-21T06:54:50;65.87;;;36.70;;
20559;SDS011;10438;51.454;6.718;2023-04-21T06:57:15;63.90;;;37.40;;
20559;SDS011;10438;51.454;6.718;2023-04-21T06:59:41;64.43;;;36.63;;
20559;SDS011;10438;51.454;6.718;2023-04-21T07:02:07;61.03;;;35.37;;
20559;SDS011;10438;51.454;6.718;2023-04-21T07:04:33;61.43;;;34.53;;
20559;SDS011;10438;51.454;6.718;2023-04-21T07:06:59;59.80;;;34.73;;
20559;SDS011;10438;51.454;6.718;2023-04-21T07:09:24;61.87;;;34.57;;
20559;SDS011;10438;51.454;6.718;2023-04-21T07:11:52;60.43;;;34.30;;
20559;SDS011;10438;51.454;6.718;2023-04-21T07:14:18;59.50;;;35.37;;
20559;SDS011;10438;51.454;6.718;2023-04-21T07:16:44;55.77;;;34.17;;
20559;SDS011;10438;51.454;6.718;2023-04-21T07:19:09;58.13;;;32.87;;
20559;SDS011;10438;51.454;6.718;2023-04-21T07:21:35;49.23;;;32.07;;
20559;SDS011;10438;51.454;6.718;2023-04-21T07:24:01;53.87;;;32.40;;
20559;SDS011;10438;51.454;6.718;2023-04-21T07:26:27;55.27;;;32.77;;
20559;SDS011;10438;51.454;6.718;2023-04-21T07:28:52;51.33;;;31.87;;
20559;SDS011;10438;51.454;6.718;2023-04-21T07:31:19;49.87;;;30.67;;
20559;SDS011;10438;51.454;6.718;2023-04-21T07:33:45;50.07;;;30.83;;
20559;SDS011;10438;51.454;6.718;2023-04-21T07:36:11;52.30;;;30.93;;
20559;SDS011;10438;51.454;6.718;2023-04-21T07:38:36;47.23;;;29.37;;
20559;SDS011;10438;51.454;6.718;2023-04-21T07:41:02;51.87;;;29.70;;
20559;SDS011;10438;51.454;6.718;2023-04-21T07:43:28;51.07;;;30.80;;
20559;SDS011;10438;51.454;6.718;2023-04-21T07:45:56;48.73;;;30.33;;
20559;SDS011;10438;51.454;6.718;2023-04-21T07:48:21;46.60;;;30.07;;
20559;SDS011;10438;51.454;6.718;2023-04-21T07:50:47;51.07;;;31.20;;
20559;SDS011;10438;51.454;6.718;2023-04-21T07:53:14;52.50;;;30.90;;
20559;SDS011;10438;51.454;6.718;2023-04-21T07:55:40;50.77;;;31.77;;
20559;SDS011;10438;51.454;6.718;2023-04-21T07:58:05;54.27;;;32.70;;
20559;SDS011;10438;51.454;6.718;2023-04-21T08:00:31;49.23;;;29.60;;
20559;SDS011;10438;51.454;6.718;2023-04-21T08:02:57;49.50;;;29.20;;
20559;SDS011;10438;51.454;6.718;2023-04-21T08:05:22;44.80;;;28.57;;
20559;SDS011;10438;51.454;6.718;2023-04-21T08:07:48;42.27;;;28.83;;
20559;SDS011;10438;51.454;6.718;2023-04-21T08:10:14;44.97;;;29.00;;
20559;SDS011;10438;51.454;6.718;2023-04-21T08:12:40;47.47;;;28.63;;
20559;SDS011;10438;51.454;6.718;2023-04-21T08:15:05;45.57;;;29.97;;
20559;SDS011;10438;51.454;6.718;2023-04-21T08:17:32;41.50;;;28.73;;
20559;SDS011;10438;51.454;6.718;2023-04-21T08:19:59;44.20;;;28.93;;
20559;SDS011;10438;51.454;6.718;2023-04-21T08:22:24;46.67;;;29.17;;
20559;SDS011;10438;51.454;6.718;2023-04-21T08:24:50;51.70;;;31.07;;
20559;SDS011;10438;51.454;6.718;2023-04-21T08:27:16;43.77;;;29.63;;
20559;SDS011;10438;51.454;6.718;2023-04-21T08:29:41;46.53;;;31.13;;
20559;SDS011;10438;51.454;6.718;2023-04-21T08:32:07;44.80;;;29.40;;
20559;SDS011;10438;51.454;6.718;2023-04-21T08:34:32;45.13;;;30.43;;
20559;SDS011;10438;51.454;6.718;2023-04-21T08:36:58;46.13;;;30.10;;
20559;SDS011;10438;51.454;6.718;2023-04-21T08:39:24;48.07;;;28.93;;
20559;SDS011;10438;51.454;6.718;2023-04-21T08:41:50;47.27;;;29.43;;
20559;SDS011;10438;51.454;6.718;2023-04-21T08:44:16;44.73;;;29.20;;
20559;SDS011;10438;51.454;6.718;2023-04-21T08:46:43;43.30;;;28.60;;
20559;SDS011;10438;51.454;6.718;2023-04-21T08:49:10;44.93;;;29.00;;
20559;SDS011;10438;51.454;6.718;2023-04-21T08:51:37;43.93;;;28.23;;
20559;SDS011;10438;51.454;6.718;2023-04-21T08:54:03;42.73;;;29.00;;
20559;SDS011;10438;51.454;6.718;2023-04-21T08:56:28;42.70;;;28.63;;
20559;SDS011;10438;51.454;6.718;2023-04-21T08:58:54;41.00;;;27.77;;
20559;SDS011;10438;51.454;6.718;2023-04-21T09:01:20;35.63;;;25.57;;
20559;SDS011;10438;51.454;6.718;2023-04-21T09:03:45;38.83;;;25.50;;
20559;SDS011;10438;51.454;6.718;2023-04-21T09:06:11;35.30;;;25.13;;
20559;SDS011;10438;51.454;6.718;2023-04-21T09:08:37;37.87;;;25.73;;
20559;SDS011;10438;51.454;6.718;2023-04-21T09:11:06;37.53;;;24.60;;
20559;SDS011;10438;51.454;6.718;2023-04-21T09:13:33;38.83;;;24.83;;
20559;SDS011;10438;51.454;6.718;2023-04-21T09:16:00;38.43;;;26.10;;
20559;SDS011;10438;51.454;6.718;2023-04-21T09:18:27;36.80;;;23.90;;
20559;SDS011;10438;51.454;6.718;2023-04-21T09:21:10;35.77;;;23.87;;
20559;SDS011;10438;51.454;6.718;2023-04-21T09:23:40;33.10;;;22.80;;
20559;SDS011;10438;51.454;6.718;2023-04-21T09:26:17;28.07;;;20.47;;
20559;SDS011;10438;51.454;6.718;2023-04-21T09:28:44;34.30;;;22.93;;
20559;SDS011;10438;51.454;6.718;2023-04-21T09:33:48;37.57;;;23.07;;
20559;SDS011;10438;51.454;6.718;2023-04-21T09:36:21;36.97;;;23.90;;
20559;SDS011;10438;51.454;6.718;2023-04-21T09:38:58;34.93;;;23.60;;
20559;SDS011;10438;51.454;6.718;2023-04-21T09:41:25;35.00;;;24.60;;
20559;SDS011;10438;51.454;6.718;2023-04-21T09:43:51;36.20;;;23.80;;
20559;SDS011;10438;51.454;6.718;2023-04-21T09:46:17;33.80;;;24.80;;
20559;SDS011;10438;51.454;6.718;2023-04-21T09:48:44;34.87;;;24.17;;
20559;SDS011;10438;51.454;6.718;2023-04-21T09:51:13;36.90;;;24.70;;
20559;SDS011;10438;51.454;6.718;2023-04-21T09:53:40;36.87;;;24.63;;
20559;SDS011;10438;51.454;6.718;2023-04-21T09:56:09;32.80;;;24.00;;
20559;SDS011;10438;51.454;6.718;2023-04-21T09:58:43;32.07;;;21.73;;
20559;SDS011;10438;51.454;6.718;2023-04-21T10:01:12;32.53;;;21.70;;
20559;SDS011;10438;51.454;6.718;2023-04-21T10:03:40;33.60;;;23.23;;
20559;SDS011;10438;51.454;6.718;2023-04-21T10:06:07;35.53;;;23.47;;
20559;SDS011;10438;51.454;6.718;2023-04-21T10:08:34;33.40;;;24.03;;
20559;SDS011;10438;51.454;6.718;2023-04-21T10:11:01;37.00;;;25.93;;
20559;SDS011;10438;51.454;6.718;2023-04-21T10:13:28;34.57;;;24.13;;
20559;SDS011;10438;51.454;6.718;2023-04-21T10:16:01;35.00;;;23.57;;
20559;SDS011;10438;51.454;6.718;2023-04-21T10:18:34;37.17;;;24.53;;
20559;SDS011;10438;51.454;6.718;2023-04-21T10:23:37;35.77;;;24.40;;
20559;SDS011;10438;51.454;6.718;2023-04-21T10:28:56;31.37;;;22.47;;
20559;SDS011;10438;51.454;6.718;2023-04-21T10:31:29;32.07;;;21.37;;
20559;SDS011;10438;51.454;6.718;2023-04-21T10:36:31;30.13;;;21.93;;
20559;SDS011;10438;51.454;6.718;2023-04-21T10:39:51;31.33;;;20.63;;
20559;SDS011;10438;51.454;6.718;2023-04-21T10:44:43;30.60;;;20.80;;
20559;SDS011;10438;51.454;6.718;2023-04-21T10:47:34;29.20;;;20.23;;
20559;SDS011;10438;51.454;6.718;2023-04-21T10:50:12;29.17;;;20.52;;
20559;SDS011;10438;51.454;6.718;2023-04-21T10:52:53;28.48;;;21.45;;
20559;SDS011;10438;51.454;6.718;2023-04-21T10:55:19;30.30;;;20.63;;
20559;SDS011;10438;51.454;6.718;2023-04-21T10:57:45;31.27;;;21.17;;
20559;SDS011;10438;51.454;6.718;2023-04-21T11:00:16;32.20;;;20.63;;
20559;SDS011;10438;51.454;6.718;2023-04-21T11:02:51;30.80;;;21.20;;
20559;SDS011;10438;51.454;6.718;2023-04-21T11:05:18;28.40;;;20.40;;
20559;SDS011;10438;51.454;6.718;2023-04-21T11:07:44;32.40;;;22.13;;
20559;SDS011;10438;51.454;6.718;2023-04-21T11:10:10;29.60;;;21.23;;
20559;SDS011;10438;51.454;6.718;2023-04-21T11:12:36;32.25;;;22.17;;
20559;SDS011;10438;51.454;6.718;2023-04-21T11:15:04;27.77;;;20.30;;
20559;SDS011;10438;51.454;6.718;2023-04-21T11:17:31;29.38;;;20.98;;
20559;SDS011;10438;51.454;6.718;2023-04-21T11:19:57;29.67;;;20.65;;
20559;SDS011;10438;51.454;6.718;2023-04-21T11:22:23;32.55;;;21.15;;
20559;SDS011;10438;51.454;6.718;2023-04-21T11:24:51;29.38;;;19.73;;
20559;SDS011;10438;51.454;6.718;2023-04-21T11:27:18;28.52;;;19.73;;
20559;SDS011;10438;51.454;6.718;2023-04-21T11:29:46;31.45;;;22.00;;
20559;SDS011;10438;51.454;6.718;2023-04-21T11:32:13;31.70;;;20.95;;
20559;SDS011;10438;51.454;6.718;2023-04-21T11:34:39;31.20;;;21.00;;
20559;SDS011;10438;51.454;6.718;2023-04-21T11:37:06;29.90;;;20.52;;
20559;SDS011;10438;51.454;6.718;2023-04-21T11:39:41;39.45;;;21.42;;
20559;SDS011;10438;51.454;6.718;2023-04-21T11:42:08;32.28;;;21.20;;
20559;SDS011;10438;51.454;6.718;2023-04-21T11:44:39;32.17;;;20.98;;
20559;SDS011;10438;51.454;6.718;2023-04-21T11:47:12;29.98;;;21.00;;
20559;SDS011;10438;51.454;6.718;2023-04-21T11:49:50;33.50;;;21.98;;
20559;SDS011;10438;51.454;6.718;2023-04-21T11:52:19;28.23;;;20.75;;
20559;SDS011;10438;51.454;6.718;2023-04-21T11:57:39;32.50;;;21.52;;
20559;SDS011;10438;51.454;6.718;2023-04-21T12:00:05;33.58;;;20.80;;
20559;SDS011;10438;51.454;6.718;2023-04-21T12:02:35;32.28;;;21.13;;
20559;SDS011;10438;51.454;6.718;2023-04-21T12:07:35;31.58;;;20.15;;
20559;SDS011;10438;51.454;6.718;2023-04-21T12:10:07;27.98;;;19.70;;
20559;SDS011;10438;51.454;6.718;2023-04-21T12:12:36;31.65;;;21.65;;
20559;SDS011;10438;51.454;6.718;2023-04-21T12:15:03;30.10;;;20.00;;
20559;SDS011;10438;51.454;6.718;2023-04-21T12:17:35;27.45;;;20.15;;
20559;SDS011;10438;51.454;6.718;2023-04-21T12:20:11;28.42;;;19.13;;
20559;SDS011;10438;51.454;6.718;2023-04-21T12:22:39;29.40;;;19.15;;
20559;SDS011;10438;51.454;6.718;2023-04-21T12:25:04;22.50;;;16.55;;
20559;SDS011;10438;51.454;6.718;2023-04-21T12:27:30;25.17;;;15.93;;
20559;SDS011;10438;51.454;6.718;2023-04-21T12:29:56;23.77;;;16.25;;
20559;SDS011;10438;51.454;6.718;2023-04-21T12:32:22;25.60;;;17.55;;
20559;SDS011;10438;51.454;6.718;2023-04-21T12:34:48;25.52;;;17.10;;
20559;SDS011;10438;51.454;6.718;2023-04-21T12:37:14;22.98;;;16.60;;
20559;SDS011;10438;51.454;6.718;2023-04-21T12:39:40;22.40;;;15.45;;
20559;SDS011;10438;51.454;6.718;2023-04-21T12:42:05;21.75;;;14.85;;
20559;SDS011;10438;51.454;6.718;2023-04-21T12:44:31;22.55;;;15.77;;
20559;SDS011;10438;51.454;6.718;2023-04-21T12:46:56;22.85;;;15.68;;
20559;SDS011;10438;51.454;6.718;2023-04-21T12:49:23;19.65;;;14.20;;
20559;SDS011;10438;51.454;6.718;2023-04-21T12:51:49;22.50;;;13.65;;
20559;SDS011;10438;51.454;6.718;2023-04-21T12:54:14;20.60;;;14.30;;
20559;SDS011;10438;51.454;6.718;2023-04-21T12:56:40;18.75;;;13.45;;
20559;SDS011;10438;51.454;6.718;2023-04-21T12:59:06;18.55;;;13.50;;
20559;SDS011;10438;51.454;6.718;2023-04-21T13:01:33;19.75;;;13.63;;
20559;SDS011;10438;51.454;6.718;2023-04-21T13:03:59;21.42;;;14.02;;
20559;SDS011;10438;51.454;6.718;2023-04-21T13:06:25;23.10;;;14.07;;
20559;SDS011;10438;51.454;6.718;2023-04-21T13:08:51;18.00;;;13.10;;
20559;SDS011;10438;51.454;6.718;2023-04-21T13:11:17;20.70;;;13.13;;
20559;SDS011;10438;51.454;6.718;2023-04-21T13:13:43;20.70;;;13.38;;
20559;SDS011;10438;51.454;6.718;2023-04-21T13:16:08;20.10;;;13.27;;
20559;SDS011;10438;51.454;6.718;2023-04-21T13:18:34;18.20;;;12.57;;
20559;SDS011;10438;51.454;6.718;2023-04-21T13:21:01;18.23;;;11.80;;
20559;SDS011;10438;51.454;6.718;2023-04-21T13:23:27;17.10;;;11.80;;
20559;SDS011;10438;51.454;6.718;2023-04-21T13:25:53;18.17;;;12.23;;
20559;SDS011;10438;51.454;6.718;2023-04-21T13:28:18;17.95;;;12.15;;
20559;SDS011;10438;51.454;6.718;2023-04-21T13:30:44;15.27;;;11.38;;
20559;SDS011;10438;51.454;6.718;2023-04-21T13:33:10;21.05;;;12.55;;
20559;SDS011;10438;51.454;6.718;2023-04-21T13:35:36;21.08;;;12.73;;
20559;SDS011;10438;51.454;6.718;2023-04-21T13:38:02;19.58;;;12.88;;
20559;SDS011;10438;51.454;6.718;2023-04-21T13:40:28;21.33;;;12.25;;
20559;SDS011;10438;51.454;6.718;2023-04-21T13:42:53;22.35;;;13.57;;
20559;SDS011;10438;51.454;6.718;2023-04-21T13:45:19;23.08;;;12.25;;
20559;SDS011;10438;51.454;6.718;2023-04-21T13:47:45;17.73;;;12.98;;
20559;SDS011;10438;51.454;6.718;2023-04-21T13:50:10;16.17;;;12.65;;
20559;SDS011;10438;51.454;6.718;2023-04-21T13:52:36;17.70;;;12.45;;
20559;SDS011;10438;51.454;6.718;2023-04-21T13:55:01;19.38;;;12.27;;
20559;SDS011;10438;51.454;6.718;2023-04-21T13:57:29;20.02;;;11.85;;
20559;SDS011;10438;51.454;6.718;2023-04-21T13:59:55;18.73;;;12.10;;
20559;SDS011;10438;51.454;6.718;2023-04-21T14:02:20;20.42;;;12.10;;
20559;SDS011;10438;51.454;6.718;2023-04-21T14:04:49;20.13;;;11.45;;
20559;SDS011;10438;51.454;6.718;2023-04-21T14:07:15;19.17;;;12.00;;
20559;SDS011;10438;51.454;6.718;2023-04-21T14:09:43;20.40;;;12.27;;
20559;SDS011;10438;51.454;6.718;2023-04-21T14:12:11;18.48;;;11.35;;
20559;SDS011;10438;51.454;6.718;2023-04-21T14:14:37;16.95;;;11.73;;
20559;SDS011;10438;51.454;6.718;2023-04-21T14:17:02;20.85;;;12.02;;
20559;SDS011;10438;51.454;6.718;2023-04-21T14:19:28;16.88;;;12.20;;
20559;SDS011;10438;51.454;6.718;2023-04-21T14:21:56;17.00;;;11.65;;
20559;SDS011;10438;51.454;6.718;2023-04-21T14:24:21;17.17;;;11.80;;
20559;SDS011;10438;51.454;6.718;2023-04-21T14:26:47;17.83;;;11.50;;
20559;SDS011;10438;51.454;6.718;2023-04-21T14:29:12;15.98;;;11.50;;
20559;SDS011;10438;51.454;6.718;2023-04-21T14:31:38;15.90;;;11.48;;
20559;SDS011;10438;51.454;6.718;2023-04-21T14:34:03;15.25;;;11.63;;
20559;SDS011;10438;51.454;6.718;2023-04-21T14:36:29;16.25;;;11.35;;